Budapest, Hungary

11:17 AM CEST on August 24, 2016 (GMT +0200)
Budapest - Taborhegy | | Change Station

Elev 492 ft 47.55 °N, 19.03 °E | Updated 66 days ago

Partly Cloudy
Partly Cloudy
77 °F
Feels Like 77 °F
N
8
Wind Variable Wind from North
Gusts mph

Today
High -- | Low -- °F
--% Chance of Precip.
Yesterday
High -- | Low -- °F
Precip. -- in
Pressure 30.24 in
Visibility -9999.0 miles
Clouds
Dew Point 60 °F
Humidity 56%
Rainfall in
Snow Depth Not available.
5:52 AM 7:39 PM
Waning Gibbous, 59% visible
METAR LHBP 240900Z 34007KT 310V040 CAVOK 25/15 Q1024 NOSIG
Pressure 30.24 in
Visibility -9999.0 miles
Clouds
Dew Point 60 °F
Humidity 56%
Rainfall in
Snow Depth Not available.
5:52 AM 7:39 PM
Waning Gibbous, 59% visible
METAR LHBP 240900Z 34007KT 310V040 CAVOK 25/15 Q1024 NOSIG

10-Day Weather Forecast

×

Almanac

Astronomy

Aug. 24, 2016 Rise Set
Actual Time
Civil Twilight
Nautical Twilight
Astronomical Twilight
Moon
Length of Visible Light
Length of Day
Tomorrow will be .
, % of the Moon is Illuminated

Today's Extremes

Country Highs Country Lows

Community

WunderPhotos

Upload Photos

1,934,560 photos uploaded!

WunderBlog® & News

Nearby

Air Quality

  Air Quality AQ Index Pollutant
Not available.

Snow Depth

Station Depth Elevation

Earthquake Activity

City Distance Mag. Time & Date
Minimum magnitude displayed is 2.5.

Coastal Water Temperatures

Place Temperature

Stations

Nearby Weather Stations

Station Location Temp. Windchill Dew Point Humidity Wind Precip. Elev Updated Type